メインページ
METAR-TAF:

METAR-TAF

空港 :

イルクーツク, ロシア

イルクーツク国際空港

緯度: 52-16N, 経度: 104-19E, 海抜: 513m

現時点の気象観測

当レポートは31分前の20:30(UTC)に作成
南/南東の風 8kt
気温 -3°C
湿度 74%
気圧 1024 hPa
視程10km以上
1,500メートル以下は雲なし、積乱雲なし

METAR: UIII 292030Z 15004MPS CAVOK M03/M07 Q1024 R12/CLRD60 NOSIG RMK QFE725/0967

時間: 05:01 (21:01 UTC)

予報

当レポートは1時間1分前の20:00(UTC)に作成
予報は29日の 21時(UTC)から 30日の 21時(UTC)まで有効
南/南東の風 8kt
視程10km以上
30日の 00時(UTC)から 30日の 12時(UTC)まで一時的に
南/南東の風 17kt

TAF: UIII 292000Z 2921/3021 15004MPS 9999 NSC TEMPO 3000/3012 15009MPS

4,000以上の空港の気象観測と天気予報(METAR報とTAF報)

利用可能な観測所は地図上に黄色い丸と赤い丸で示す。

丸の上にカーソルを重ねると観測所名を参照できる。

次にクリックすると気象観測と天気予報を参照できる。

マップの切り替え:黒色「×」印の緑ボタンをクリックして拡大、「-」印の緑ボタンをクリックして縮小、緑色の三角印をクリックして隣りの地図に切り替え


METAR-TAF: